sensor_id;sensor_type;location;lat;lon;timestamp;pressure;altitude;pressure_sealevel;temperature;humidity
61014;BME280;46899;47.542;19.082;2023-03-25T00:02:27;99507.94;;;14.46;78.49
61014;BME280;46899;47.542;19.082;2023-03-25T00:05:33;99505.94;;;14.64;77.61
61014;BME280;46899;47.542;19.082;2023-03-25T00:08:36;99517.12;;;14.66;77.38
61014;BME280;46899;47.542;19.082;2023-03-25T00:11:39;99517.25;;;14.77;75.28
61014;BME280;46899;47.542;19.082;2023-03-25T00:14:42;99513.75;;;14.90;73.89
61014;BME280;46899;47.542;19.082;2023-03-25T00:17:45;99519.53;;;14.95;73.21
61014;BME280;46899;47.542;19.082;2023-03-25T00:20:48;99499.94;;;15.01;72.77
61014;BME280;46899;47.542;19.082;2023-03-25T00:23:52;99503.06;;;14.93;73.01
61014;BME280;46899;47.542;19.082;2023-03-25T00:26:54;99508.44;;;15.04;72.08
61014;BME280;46899;47.542;19.082;2023-03-25T00:29:57;99514.72;;;15.15;70.83
61014;BME280;46899;47.542;19.082;2023-03-25T00:32:59;99512.87;;;15.17;70.72
61014;BME280;46899;47.542;19.082;2023-03-25T00:36:03;99520.31;;;15.23;69.86
61014;BME280;46899;47.542;19.082;2023-03-25T00:39:07;99516.22;;;15.31;69.38
61014;BME280;46899;47.542;19.082;2023-03-25T00:42:09;99522.72;;;15.38;69.09
61014;BME280;46899;47.542;19.082;2023-03-25T00:45:15;99516.13;;;15.33;69.25
61014;BME280;46899;47.542;19.082;2023-03-25T00:48:18;99512.87;;;15.29;69.69
61014;BME280;46899;47.542;19.082;2023-03-25T00:51:21;99517.91;;;15.32;69.61
61014;BME280;46899;47.542;19.082;2023-03-25T00:54:24;99514.88;;;15.26;70.30
61014;BME280;46899;47.542;19.082;2023-03-25T00:57:27;99523.13;;;15.20;70.81
61014;BME280;46899;47.542;19.082;2023-03-25T01:00:29;99523.06;;;15.21;71.34
61014;BME280;46899;47.542;19.082;2023-03-25T01:03:32;99524.81;;;15.21;72.02
61014;BME280;46899;47.542;19.082;2023-03-25T01:06:39;99519.28;;;15.25;72.81
61014;BME280;46899;47.542;19.082;2023-03-25T01:09:53;99530.06;;;15.21;73.87
61014;BME280;46899;47.542;19.082;2023-03-25T01:12:55;99526.47;;;15.22;75.32
61014;BME280;46899;47.542;19.082;2023-03-25T01:15:58;99518.13;;;15.17;77.14
61014;BME280;46899;47.542;19.082;2023-03-25T01:19:00;99512.66;;;15.07;79.02
61014;BME280;46899;47.542;19.082;2023-03-25T01:22:03;99519.31;;;14.98;80.06
61014;BME280;46899;47.542;19.082;2023-03-25T01:25:06;99531.06;;;14.93;81.28
61014;BME280;46899;47.542;19.082;2023-03-25T01:28:09;99518.03;;;14.79;83.58
61014;BME280;46899;47.542;19.082;2023-03-25T01:31:14;99528.25;;;14.69;85.32
61014;BME280;46899;47.542;19.082;2023-03-25T01:34:17;99526.44;;;14.57;87.92
61014;BME280;46899;47.542;19.082;2023-03-25T01:37:21;99529.84;;;14.45;89.50
61014;BME280;46899;47.542;19.082;2023-03-25T01:40:23;99528.00;;;14.33;90.98
61014;BME280;46899;47.542;19.082;2023-03-25T01:43:26;99538.72;;;14.28;92.12
61014;BME280;46899;47.542;19.082;2023-03-25T01:46:31;99531.75;;;14.15;94.23
61014;BME280;46899;47.542;19.082;2023-03-25T01:49:35;99533.91;;;14.08;95.88
61014;BME280;46899;47.542;19.082;2023-03-25T01:52:41;99544.84;;;14.01;97.12
61014;BME280;46899;47.542;19.082;2023-03-25T01:55:46;99537.84;;;13.87;100.00
61014;BME280;46899;47.542;19.082;2023-03-25T01:58:49;99531.31;;;13.80;100.00
61014;BME280;46899;47.542;19.082;2023-03-25T02:01:54;99542.31;;;13.71;100.00
61014;BME280;46899;47.542;19.082;2023-03-25T02:04:58;99558.37;;;13.65;100.00
61014;BME280;46899;47.542;19.082;2023-03-25T02:08:02;99557.81;;;13.60;100.00
61014;BME280;46899;47.542;19.082;2023-03-25T02:11:07;99553.72;;;13.56;100.00
61014;BME280;46899;47.542;19.082;2023-03-25T02:14:11;99554.16;;;13.48;100.00
61014;BME280;46899;47.542;19.082;2023-03-25T02:40:21;99555.97;;;12.57;100.00
61014;BME280;46899;47.542;19.082;2023-03-25T02:43:29;99555.53;;;12.49;100.00
61014;BME280;46899;47.542;19.082;2023-03-25T02:46:33;99544.88;;;12.38;100.00
61014;BME280;46899;47.542;19.082;2023-03-25T02:49:39;99546.38;;;12.26;100.00
61014;BME280;46899;47.542;19.082;2023-03-25T02:52:43;99541.84;;;12.14;100.00
61014;BME280;46899;47.542;19.082;2023-03-25T02:55:48;99541.75;;;12.00;100.00
61014;BME280;46899;47.542;19.082;2023-03-25T02:58:54;99552.53;;;11.77;100.00
61014;BME280;46899;47.542;19.082;2023-03-25T03:01:58;99539.75;;;11.73;100.00
61014;BME280;46899;47.542;19.082;2023-03-25T03:05:02;99542.63;;;11.68;100.00
61014;BME280;46899;47.542;19.082;2023-03-25T03:18:27;99552.25;;;11.49;100.00
61014;BME280;46899;47.542;19.082;2023-03-25T03:25:08;99555.72;;;11.32;100.00
61014;BME280;46899;47.542;19.082;2023-03-25T03:28:14;99566.28;;;11.29;100.00
61014;BME280;46899;47.542;19.082;2023-03-25T03:31:28;99570.25;;;11.19;100.00
61014;BME280;46899;47.542;19.082;2023-03-25T03:34:59;99571.56;;;11.11;100.00
61014;BME280;46899;47.542;19.082;2023-03-25T03:38:04;99572.94;;;11.00;100.00
61014;BME280;46899;47.542;19.082;2023-03-25T03:41:11;99576.13;;;10.88;100.00
61014;BME280;46899;47.542;19.082;2023-03-25T03:44:17;99580.94;;;10.79;100.00
61014;BME280;46899;47.542;19.082;2023-03-25T03:47:22;99573.13;;;10.79;100.00
61014;BME280;46899;47.542;19.082;2023-03-25T03:50:27;99575.97;;;10.74;100.00
61014;BME280;46899;47.542;19.082;2023-03-25T03:53:37;99582.25;;;10.70;100.00
61014;BME280;46899;47.542;19.082;2023-03-25T03:56:46;99592.88;;;10.66;100.00
61014;BME280;46899;47.542;19.082;2023-03-25T04:00:02;99604.97;;;10.67;100.00
61014;BME280;46899;47.542;19.082;2023-03-25T04:12:56;99607.94;;;10.59;100.00
61014;BME280;46899;47.542;19.082;2023-03-25T04:16:01;99621.97;;;10.55;100.00
61014;BME280;46899;47.542;19.082;2023-03-25T04:19:05;99620.44;;;10.51;100.00
61014;BME280;46899;47.542;19.082;2023-03-25T04:22:07;99616.94;;;10.52;100.00
61014;BME280;46899;47.542;19.082;2023-03-25T04:25:10;99625.59;;;10.53;100.00
61014;BME280;46899;47.542;19.082;2023-03-25T04:28:13;99628.25;;;10.51;100.00
61014;BME280;46899;47.542;19.082;2023-03-25T04:31:19;99633.31;;;10.54;100.00
61014;BME280;46899;47.542;19.082;2023-03-25T04:34:21;99635.06;;;10.54;100.00
61014;BME280;46899;47.542;19.082;2023-03-25T04:37:24;99639.34;;;10.55;100.00
61014;BME280;46899;47.542;19.082;2023-03-25T04:40:27;99641.19;;;10.53;100.00
61014;BME280;46899;47.542;19.082;2023-03-25T04:43:31;99645.75;;;10.48;100.00
61014;BME280;46899;47.542;19.082;2023-03-25T04:46:34;99643.97;;;10.48;100.00
61014;BME280;46899;47.542;19.082;2023-03-25T04:49:37;99652.78;;;10.64;100.00
61014;BME280;46899;47.542;19.082;2023-03-25T04:52:40;99645.25;;;10.58;100.00
61014;BME280;46899;47.542;19.082;2023-03-25T04:55:44;99656.63;;;10.56;100.00
61014;BME280;46899;47.542;19.082;2023-03-25T04:58:50;99651.44;;;10.56;100.00
61014;BME280;46899;47.542;19.082;2023-03-25T05:01:54;99654.88;;;10.56;100.00
61014;BME280;46899;47.542;19.082;2023-03-25T05:04:57;99662.25;;;10.65;100.00
61014;BME280;46899;47.542;19.082;2023-03-25T05:08:03;99669.28;;;10.63;100.00
61014;BME280;46899;47.542;19.082;2023-03-25T05:11:06;99670.84;;;10.67;100.00
61014;BME280;46899;47.542;19.082;2023-03-25T05:14:09;99674.16;;;10.71;100.00
61014;BME280;46899;47.542;19.082;2023-03-25T05:17:11;99677.00;;;10.65;100.00
61014;BME280;46899;47.542;19.082;2023-03-25T05:20:14;99680.47;;;10.65;100.00
61014;BME280;46899;47.542;19.082;2023-03-25T05:23:17;99682.31;;;10.63;100.00
61014;BME280;46899;47.542;19.082;2023-03-25T05:26:20;99676.81;;;10.69;100.00
61014;BME280;46899;47.542;19.082;2023-03-25T05:29:22;99678.22;;;10.76;100.00
61014;BME280;46899;47.542;19.082;2023-03-25T05:32:25;99683.84;;;10.67;100.00
61014;BME280;46899;47.542;19.082;2023-03-25T05:35:33;99691.94;;;10.61;100.00
61014;BME280;46899;47.542;19.082;2023-03-25T05:38:36;99684.06;;;10.63;100.00
61014;BME280;46899;47.542;19.082;2023-03-25T05:41:39;99683.06;;;10.65;100.00
61014;BME280;46899;47.542;19.082;2023-03-25T05:44:41;99688.41;;;10.62;100.00
61014;BME280;46899;47.542;19.082;2023-03-25T05:47:51;99682.72;;;10.73;100.00
61014;BME280;46899;47.542;19.082;2023-03-25T05:50:55;99691.03;;;10.81;100.00
61014;BME280;46899;47.542;19.082;2023-03-25T05:53:58;99690.50;;;10.91;100.00
61014;BME280;46899;47.542;19.082;2023-03-25T05:57:00;99681.09;;;10.89;100.00
61014;BME280;46899;47.542;19.082;2023-03-25T06:00:03;99682.56;;;10.94;100.00
61014;BME280;46899;47.542;19.082;2023-03-25T06:03:12;99689.19;;;11.02;100.00
61014;BME280;46899;47.542;19.082;2023-03-25T06:06:15;99696.13;;;11.01;100.00
61014;BME280;46899;47.542;19.082;2023-03-25T06:09:20;99693.63;;;10.99;100.00
61014;BME280;46899;47.542;19.082;2023-03-25T06:12:23;99687.44;;;11.02;100.00
61014;BME280;46899;47.542;19.082;2023-03-25T06:15:28;99702.66;;;11.10;100.00
61014;BME280;46899;47.542;19.082;2023-03-25T06:18:35;99692.81;;;11.16;100.00
61014;BME280;46899;47.542;19.082;2023-03-25T06:21:38;99697.94;;;11.18;100.00
61014;BME280;46899;47.542;19.082;2023-03-25T06:24:41;99700.09;;;11.27;100.00
61014;BME280;46899;47.542;19.082;2023-03-25T06:27:44;99697.03;;;11.36;100.00
61014;BME280;46899;47.542;19.082;2023-03-25T06:30:47;99694.94;;;11.44;100.00
61014;BME280;46899;47.542;19.082;2023-03-25T06:33:50;99684.66;;;11.41;100.00
61014;BME280;46899;47.542;19.082;2023-03-25T06:36:53;99696.13;;;11.37;100.00
61014;BME280;46899;47.542;19.082;2023-03-25T06:39:55;99704.34;;;11.46;100.00
61014;BME280;46899;47.542;19.082;2023-03-25T06:42:59;99701.16;;;11.58;100.00
61014;BME280;46899;47.542;19.082;2023-03-25T06:46:04;99706.03;;;11.64;100.00
61014;BME280;46899;47.542;19.082;2023-03-25T06:49:09;99702.09;;;11.75;100.00
61014;BME280;46899;47.542;19.082;2023-03-25T06:52:12;99721.25;;;11.74;100.00
61014;BME280;46899;47.542;19.082;2023-03-25T06:55:14;99716.34;;;11.85;100.00
61014;BME280;46899;47.542;19.082;2023-03-25T06:58:17;99730.69;;;11.93;100.00
61014;BME280;46899;47.542;19.082;2023-03-25T07:01:19;99733.31;;;12.10;100.00
61014;BME280;46899;47.542;19.082;2023-03-25T07:04:22;99724.44;;;12.30;100.00
61014;BME280;46899;47.542;19.082;2023-03-25T07:07:25;99722.69;;;12.46;100.00
61014;BME280;46899;47.542;19.082;2023-03-25T07:10:28;99726.87;;;12.81;100.00
61014;BME280;46899;47.542;19.082;2023-03-25T07:13:31;99736.88;;;13.22;100.00
61014;BME280;46899;47.542;19.082;2023-03-25T07:16:34;99737.66;;;13.69;100.00
61014;BME280;46899;47.542;19.082;2023-03-25T07:19:37;99742.97;;;14.83;97.05
61014;BME280;46899;47.542;19.082;2023-03-25T07:22:39;99744.84;;;16.02;84.25
61014;BME280;46899;47.542;19.082;2023-03-25T07:25:42;99747.97;;;15.82;83.76
61014;BME280;46899;47.542;19.082;2023-03-25T07:28:44;99744.81;;;15.36;89.12
61014;BME280;46899;47.542;19.082;2023-03-25T07:31:49;99752.31;;;15.69;87.03
61014;BME280;46899;47.542;19.082;2023-03-25T07:34:52;99755.72;;;16.73;82.43
61014;BME280;46899;47.542;19.082;2023-03-25T07:37:55;99756.69;;;17.21;77.27
61014;BME280;46899;47.542;19.082;2023-03-25T07:40:57;99766.16;;;18.29;71.79
61014;BME280;46899;47.542;19.082;2023-03-25T07:44:00;99753.84;;;20.66;60.05
61014;BME280;46899;47.542;19.082;2023-03-25T07:47:04;99750.25;;;23.16;50.57
61014;BME280;46899;47.542;19.082;2023-03-25T07:50:07;99755.84;;;21.72;51.79
61014;BME280;46899;47.542;19.082;2023-03-25T07:53:09;99749.84;;;20.10;56.14
61014;BME280;46899;47.542;19.082;2023-03-25T07:56:12;99758.25;;;17.95;65.20
61014;BME280;46899;47.542;19.082;2023-03-25T07:59:15;99754.28;;;17.78;68.27
61014;BME280;46899;47.542;19.082;2023-03-25T08:02:18;99750.94;;;18.33;63.42
61014;BME280;46899;47.542;19.082;2023-03-25T08:05:21;99739.88;;;18.52;64.08
61014;BME280;46899;47.542;19.082;2023-03-25T08:08:23;99749.72;;;19.05;60.53
61014;BME280;46899;47.542;19.082;2023-03-25T08:11:26;99750.19;;;20.58;55.08
61014;BME280;46899;47.542;19.082;2023-03-25T08:14:28;99751.53;;;21.62;50.07
61014;BME280;46899;47.542;19.082;2023-03-25T08:17:31;99769.88;;;21.44;49.25
61014;BME280;46899;47.542;19.082;2023-03-25T08:20:34;99751.41;;;20.12;53.64
61014;BME280;46899;47.542;19.082;2023-03-25T08:23:37;99749.44;;;20.76;51.94
61014;BME280;46899;47.542;19.082;2023-03-25T08:26:39;99757.31;;;19.41;56.60
61014;BME280;46899;47.542;19.082;2023-03-25T08:29:43;99744.84;;;18.32;60.17
61014;BME280;46899;47.542;19.082;2023-03-25T08:32:45;99736.66;;;18.59;62.37
61014;BME280;46899;47.542;19.082;2023-03-25T08:35:56;99747.16;;;19.03;57.96
61014;BME280;46899;47.542;19.082;2023-03-25T08:38:59;99744.31;;;18.73;63.28
61014;BME280;46899;47.542;19.082;2023-03-25T08:42:02;99743.53;;;19.49;59.23
61014;BME280;46899;47.542;19.082;2023-03-25T08:45:05;99742.44;;;19.83;55.37
61014;BME280;46899;47.542;19.082;2023-03-25T08:48:08;99748.59;;;21.06;50.88
61014;BME280;46899;47.542;19.082;2023-03-25T08:51:11;99750.78;;;21.31;49.09
61014;BME280;46899;47.542;19.082;2023-03-25T08:54:14;99734.84;;;20.52;53.79
61014;BME280;46899;47.542;19.082;2023-03-25T08:57:17;99734.75;;;18.72;54.85
61014;BME280;46899;47.542;19.082;2023-03-25T09:00:19;99731.47;;;17.42;64.31
61014;BME280;46899;47.542;19.082;2023-03-25T09:03:25;99730.53;;;17.07;64.85
61014;BME280;46899;47.542;19.082;2023-03-25T09:06:31;99723.53;;;16.95;69.90
61014;BME280;46899;47.542;19.082;2023-03-25T09:09:49;99717.69;;;16.79;68.75
61014;BME280;46899;47.542;19.082;2023-03-25T09:12:52;99733.44;;;16.66;68.50
61014;BME280;46899;47.542;19.082;2023-03-25T09:15:56;99730.09;;;16.64;67.58
61014;BME280;46899;47.542;19.082;2023-03-25T09:18:59;99734.59;;;16.50;67.13
61014;BME280;46899;47.542;19.082;2023-03-25T09:22:02;99730.81;;;16.28;68.67
61014;BME280;46899;47.542;19.082;2023-03-25T09:25:05;99731.75;;;16.27;68.33
61014;BME280;46899;47.542;19.082;2023-03-25T09:28:08;99739.41;;;16.30;67.60
61014;BME280;46899;47.542;19.082;2023-03-25T09:31:11;99729.69;;;16.58;66.05
61014;BME280;46899;47.542;19.082;2023-03-25T09:34:13;99724.63;;;16.55;65.83
61014;BME280;46899;47.542;19.082;2023-03-25T09:37:17;99722.00;;;16.55;68.36
61014;BME280;46899;47.542;19.082;2023-03-25T09:40:23;99728.84;;;16.70;65.86
61014;BME280;46899;47.542;19.082;2023-03-25T09:46:35;99721.13;;;16.79;61.70
61014;BME280;46899;47.542;19.082;2023-03-25T09:49:40;99719.44;;;16.91;64.06
61014;BME280;46899;47.542;19.082;2023-03-25T09:55:55;99732.53;;;17.40;61.67
61014;BME280;46899;47.542;19.082;2023-03-25T09:58:59;99732.06;;;17.46;61.70
61014;BME280;46899;47.542;19.082;2023-03-25T10:02:05;99737.06;;;17.38;59.36
61014;BME280;46899;47.542;19.082;2023-03-25T10:11:40;99744.56;;;16.95;59.04
61014;BME280;46899;47.542;19.082;2023-03-25T10:24:44;99730.81;;;17.51;59.31
61014;BME280;46899;47.542;19.082;2023-03-25T10:27:52;99732.59;;;17.74;55.83
61014;BME280;46899;47.542;19.082;2023-03-25T10:30:56;99732.13;;;18.15;56.02
61014;BME280;46899;47.542;19.082;2023-03-25T10:33:59;99737.28;;;17.82;55.72
61014;BME280;46899;47.542;19.082;2023-03-25T10:37:05;99732.34;;;17.30;56.70
61014;BME280;46899;47.542;19.082;2023-03-25T10:40:12;99742.31;;;17.14;57.31
61014;BME280;46899;47.542;19.082;2023-03-25T10:43:26;99738.19;;;17.46;58.15
61014;BME280;46899;47.542;19.082;2023-03-25T10:46:34;99750.75;;;18.01;55.16
61014;BME280;46899;47.542;19.082;2023-03-25T10:49:43;99741.28;;;17.64;52.18
61014;BME280;46899;47.542;19.082;2023-03-25T10:52:47;99731.53;;;17.77;53.43
61014;BME280;46899;47.542;19.082;2023-03-25T10:55:54;99736.31;;;17.83;53.27
61014;BME280;46899;47.542;19.082;2023-03-25T10:58:57;99726.94;;;18.03;55.30
61014;BME280;46899;47.542;19.082;2023-03-25T11:02:04;99732.56;;;17.98;53.87
61014;BME280;46899;47.542;19.082;2023-03-25T11:05:19;99739.56;;;17.75;51.69
61014;BME280;46899;47.542;19.082;2023-03-25T11:08:22;99738.16;;;17.94;50.38
61014;BME280;46899;47.542;19.082;2023-03-25T11:11:30;99736.34;;;17.59;53.35
61014;BME280;46899;47.542;19.082;2023-03-25T11:14:38;99736.28;;;17.72;53.42
61014;BME280;46899;47.542;19.082;2023-03-25T11:17:42;99729.31;;;17.95;50.20
61014;BME280;46899;47.542;19.082;2023-03-25T11:20:47;99734.31;;;17.87;49.82
61014;BME280;46899;47.542;19.082;2023-03-25T11:23:50;99737.62;;;17.77;52.18
61014;BME280;46899;47.542;19.082;2023-03-25T11:26:53;99750.06;;;17.16;51.92
61014;BME280;46899;47.542;19.082;2023-03-25T11:29:59;99741.09;;;16.44;59.38
61014;BME280;46899;47.542;19.082;2023-03-25T11:33:05;99743.41;;;16.23;61.51
61014;BME280;46899;47.542;19.082;2023-03-25T11:36:09;99738.81;;;16.52;58.67
61014;BME280;46899;47.542;19.082;2023-03-25T11:45:33;99733.56;;;16.65;53.69
61014;BME280;46899;47.542;19.082;2023-03-25T11:48:37;99740.47;;;16.78;51.98
61014;BME280;46899;47.542;19.082;2023-03-25T11:51:41;99747.03;;;16.60;51.02
61014;BME280;46899;47.542;19.082;2023-03-25T11:54:43;99740.47;;;16.40;50.89
61014;BME280;46899;47.542;19.082;2023-03-25T11:57:47;99743.84;;;16.17;51.74
61014;BME280;46899;47.542;19.082;2023-03-25T12:00:51;99763.28;;;15.88;53.29
61014;BME280;46899;47.542;19.082;2023-03-25T12:04:12;99753.88;;;15.98;54.63
61014;BME280;46899;47.542;19.082;2023-03-25T12:07:15;99737.22;;;16.75;52.33
61014;BME280;46899;47.542;19.082;2023-03-25T12:16:37;99757.69;;;16.82;48.97
61014;BME280;46899;47.542;19.082;2023-03-25T12:19:47;99747.19;;;16.82;49.38
61014;BME280;46899;47.542;19.082;2023-03-25T12:23:05;99752.16;;;16.74;49.71
61014;BME280;46899;47.542;19.082;2023-03-25T12:32:35;99742.78;;;16.70;49.72
61014;BME280;46899;47.542;19.082;2023-03-25T12:38:48;99739.31;;;16.82;47.49
61014;BME280;46899;47.542;19.082;2023-03-25T13:07:57;99694.38;;;16.62;47.49
61014;BME280;46899;47.542;19.082;2023-03-25T13:11:04;99694.91;;;16.67;46.57
61014;BME280;46899;47.542;19.082;2023-03-25T13:21:09;99688.13;;;16.75;46.71
61014;BME280;46899;47.542;19.082;2023-03-25T13:24:19;99690.75;;;16.75;46.04
61014;BME280;46899;47.542;19.082;2023-03-25T13:27:23;99690.78;;;16.37;45.82
61014;BME280;46899;47.542;19.082;2023-03-25T13:30:31;99704.13;;;16.22;46.07
61014;BME280;46899;47.542;19.082;2023-03-25T13:33:36;99692.34;;;16.02;46.87
61014;BME280;46899;47.542;19.082;2023-03-25T13:36:40;99698.97;;;16.20;45.22
61014;BME280;46899;47.542;19.082;2023-03-25T13:43:29;99691.75;;;16.24;45.54
61014;BME280;46899;47.542;19.082;2023-03-25T13:46:45;99692.69;;;16.10;45.60
61014;BME280;46899;47.542;19.082;2023-03-25T13:49:56;99694.53;;;15.70;46.32
61014;BME280;46899;47.542;19.082;2023-03-25T13:57:00;99695.87;;;15.63;45.99
61014;BME280;46899;47.542;19.082;2023-03-25T13:59:42;99700.09;;;15.79;45.97
61014;BME280;46899;47.542;19.082;2023-03-25T14:03:01;99689.37;;;15.69;46.74
61014;BME280;46899;47.542;19.082;2023-03-25T14:12:45;99698.16;;;15.55;47.22
61014;BME280;46899;47.542;19.082;2023-03-25T14:16:01;99706.22;;;15.52;46.88
61014;BME280;46899;47.542;19.082;2023-03-25T14:19:07;99694.78;;;15.53;46.89
61014;BME280;46899;47.542;19.082;2023-03-25T14:22:13;99693.22;;;15.51;47.38
61014;BME280;46899;47.542;19.082;2023-03-25T14:25:25;99702.00;;;15.50;47.81
61014;BME280;46899;47.542;19.082;2023-03-25T14:28:46;99689.16;;;15.33;47.85
61014;BME280;46899;47.542;19.082;2023-03-25T14:31:59;99685.03;;;15.29;48.27
61014;BME280;46899;47.542;19.082;2023-03-25T14:45:31;99695.44;;;15.30;48.26
61014;BME280;46899;47.542;19.082;2023-03-25T14:48:23;99692.41;;;15.10;47.79
61014;BME280;46899;47.542;19.082;2023-03-25T14:54:32;99700.97;;;15.26;47.92
61014;BME280;46899;47.542;19.082;2023-03-25T14:57:40;99682.91;;;15.21;47.64
61014;BME280;46899;47.542;19.082;2023-03-25T15:00:49;99683.97;;;15.19;48.20
61014;BME280;46899;47.542;19.082;2023-03-25T15:04:05;99693.19;;;15.24;47.91
61014;BME280;46899;47.542;19.082;2023-03-25T15:07:09;99687.19;;;15.22;48.63
61014;BME280;46899;47.542;19.082;2023-03-25T15:13:31;99693.28;;;15.23;48.05
61014;BME280;46899;47.542;19.082;2023-03-25T15:20:38;99697.28;;;15.01;48.52
61014;BME280;46899;47.542;19.082;2023-03-25T15:29:46;99704.16;;;14.90;47.56
61014;BME280;46899;47.542;19.082;2023-03-25T15:36:10;99707.25;;;14.82;48.03
61014;BME280;46899;47.542;19.082;2023-03-25T15:42:38;99716.88;;;14.82;47.30
61014;BME280;46899;47.542;19.082;2023-03-25T15:46:44;99701.63;;;14.88;46.98
61014;BME280;46899;47.542;19.082;2023-03-25T15:55:49;99687.44;;;14.78;47.60
61014;BME280;46899;47.542;19.082;2023-03-25T15:58:59;99686.50;;;14.65;48.08
61014;BME280;46899;47.542;19.082;2023-03-25T16:02:10;99673.41;;;14.51;48.26
61014;BME280;46899;47.542;19.082;2023-03-25T16:05:15;99677.00;;;14.36;48.37
61014;BME280;46899;47.542;19.082;2023-03-25T16:08:29;99677.31;;;14.16;48.43
61014;BME280;46899;47.542;19.082;2023-03-25T16:11:33;99681.31;;;14.07;48.91
61014;BME280;46899;47.542;19.082;2023-03-25T16:14:36;99684.22;;;14.03;48.62
61014;BME280;46899;47.542;19.082;2023-03-25T16:17:41;99684.78;;;13.94;48.81
61014;BME280;46899;47.542;19.082;2023-03-25T16:20:44;99678.22;;;13.87;48.93
61014;BME280;46899;47.542;19.082;2023-03-25T16:23:50;99687.94;;;13.85;50.20
61014;BME280;46899;47.542;19.082;2023-03-25T16:26:53;99689.22;;;13.78;49.50
61014;BME280;46899;47.542;19.082;2023-03-25T16:29:57;99689.75;;;13.68;48.97
61014;BME280;46899;47.542;19.082;2023-03-25T16:36:13;99706.31;;;13.53;47.87
61014;BME280;46899;47.542;19.082;2023-03-25T16:39:16;99698.91;;;13.46;47.89
61014;BME280;46899;47.542;19.082;2023-03-25T16:45:28;99697.84;;;13.34;48.43
61014;BME280;46899;47.542;19.082;2023-03-25T16:48:40;99706.84;;;13.29;48.36
61014;BME280;46899;47.542;19.082;2023-03-25T16:51:44;99705.44;;;13.23;48.27
61014;BME280;46899;47.542;19.082;2023-03-25T16:57:53;99708.03;;;12.92;49.35
61014;BME280;46899;47.542;19.082;2023-03-25T17:00:56;99704.81;;;12.87;49.93
61014;BME280;46899;47.542;19.082;2023-03-25T17:04:09;99709.19;;;12.71;50.19
61014;BME280;46899;47.542;19.082;2023-03-25T17:07:14;99705.53;;;12.58;51.05
61014;BME280;46899;47.542;19.082;2023-03-25T17:10:23;99703.06;;;12.39;51.66
61014;BME280;46899;47.542;19.082;2023-03-25T17:16:29;99711.13;;;12.34;51.80
61014;BME280;46899;47.542;19.082;2023-03-25T17:19:32;99707.12;;;12.12;52.62
61014;BME280;46899;47.542;19.082;2023-03-25T17:22:36;99707.12;;;12.12;53.78
61014;BME280;46899;47.542;19.082;2023-03-25T17:31:55;99710.31;;;11.84;54.32
61014;BME280;46899;47.542;19.082;2023-03-25T17:35:04;99711.91;;;11.70;53.87
61014;BME280;46899;47.542;19.082;2023-03-25T17:38:12;99719.00;;;11.66;54.14
61014;BME280;46899;47.542;19.082;2023-03-25T17:41:16;99721.97;;;11.77;54.29
61014;BME280;46899;47.542;19.082;2023-03-25T17:44:20;99715.62;;;11.64;54.88
61014;BME280;46899;47.542;19.082;2023-03-25T17:47:22;99725.13;;;11.65;55.27
61014;BME280;46899;47.542;19.082;2023-03-25T17:50:25;99726.59;;;11.53;55.28
61014;BME280;46899;47.542;19.082;2023-03-25T17:53:29;99720.56;;;11.34;56.28
61014;BME280;46899;47.542;19.082;2023-03-25T17:56:31;99715.81;;;11.42;56.00
61014;BME280;46899;47.542;19.082;2023-03-25T17:59:34;99724.53;;;11.24;56.22
61014;BME280;46899;47.542;19.082;2023-03-25T18:02:37;99728.34;;;10.98;57.70
61014;BME280;46899;47.542;19.082;2023-03-25T18:05:42;99735.88;;;10.86;58.64
61014;BME280;46899;47.542;19.082;2023-03-25T18:08:45;99732.38;;;10.68;58.38
61014;BME280;46899;47.542;19.082;2023-03-25T18:11:52;99747.31;;;10.45;59.60
61014;BME280;46899;47.542;19.082;2023-03-25T18:14:54;99747.28;;;10.26;60.39
61014;BME280;46899;47.542;19.082;2023-03-25T18:17:57;99745.91;;;10.17;62.08
61014;BME280;46899;47.542;19.082;2023-03-25T18:21:00;99753.66;;;10.19;62.38
61014;BME280;46899;47.542;19.082;2023-03-25T18:24:06;99752.31;;;10.09;62.46
61014;BME280;46899;47.542;19.082;2023-03-25T18:27:09;99765.69;;;10.00;63.22
61014;BME280;46899;47.542;19.082;2023-03-25T18:33:21;99761.59;;;9.94;63.97
61014;BME280;46899;47.542;19.082;2023-03-25T18:36:24;99768.16;;;9.83;64.12
61014;BME280;46899;47.542;19.082;2023-03-25T18:39:27;99777.19;;;9.74;65.02
61014;BME280;46899;47.542;19.082;2023-03-25T18:42:29;99774.69;;;9.71;66.81
61014;BME280;46899;47.542;19.082;2023-03-25T18:45:32;99775.91;;;9.62;67.19
61014;BME280;46899;47.542;19.082;2023-03-25T18:48:35;99784.97;;;9.52;67.40
61014;BME280;46899;47.542;19.082;2023-03-25T18:51:37;99783.88;;;9.80;66.63
61014;BME280;46899;47.542;19.082;2023-03-25T18:54:40;99795.66;;;9.67;67.31
61014;BME280;46899;47.542;19.082;2023-03-25T18:57:43;99803.16;;;9.52;69.09
61014;BME280;46899;47.542;19.082;2023-03-25T19:00:46;99801.22;;;9.79;67.49
61014;BME280;46899;47.542;19.082;2023-03-25T19:03:49;99804.66;;;9.80;66.76
61014;BME280;46899;47.542;19.082;2023-03-25T19:06:53;99802.75;;;10.05;68.36
61014;BME280;46899;47.542;19.082;2023-03-25T19:09:55;99797.84;;;10.19;68.30
61014;BME280;46899;47.542;19.082;2023-03-25T19:12:59;99799.34;;;10.45;69.53
61014;BME280;46899;47.542;19.082;2023-03-25T19:16:01;99798.69;;;10.60;70.46
61014;BME280;46899;47.542;19.082;2023-03-25T19:19:04;99804.84;;;10.57;72.47
61014;BME280;46899;47.542;19.082;2023-03-25T19:22:07;99809.41;;;10.52;74.54
61014;BME280;46899;47.542;19.082;2023-03-25T19:25:11;99799.25;;;10.66;76.52